Time;durP1;ratioP1;P1;durP2;ratioP2;P2;SDS_P1;SDS_P2;PMS_P1;PMS_P2;Temp;Humidity;BMP_temperature;BMP_pressure;BME280_temperature;BME280_humidity;BME280_pressure;Samples;Min_cycle;Max_cycle;Signal;HPM_P1;HPM_P2
2021/04/08 00:00:13;;;;;;;7.57;4.75;;;;;;;0.94;100.00;96770.94;5012736;28;20080;-52
2021/04/08 00:02:42;;;;;;;6.53;5.70;;;;;;;1.10;100.00;96781.38;5030764;28;20073;-50
2021/04/08 00:05:12;;;;;;;5.97;4.72;;;;;;;0.92;100.00;96777.13;5010984;28;21530;-55
2021/04/08 00:07:40;;;;;;;5.37;4.73;;;;;;;1.10;100.00;96775.34;5031593;28;20061;-50
2021/04/08 00:10:08;;;;;;;6.05;5.03;;;;;;;1.00;100.00;96781.91;5018090;28;21041;-49
2021/04/08 00:12:36;;;;;;;5.65;4.97;;;;;;;1.08;100.00;96779.78;5006220;28;20065;-50
2021/04/08 00:15:06;;;;;;;5.30;4.80;;;;;;;1.12;100.00;96789.94;5032356;28;20063;-54
2021/04/08 00:17:34;;;;;;;5.57;5.07;;;;;;;1.15;100.00;96784.56;5005645;28;20103;-52
2021/04/08 00:20:03;;;;;;;7.85;4.40;;;;;;;1.02;100.00;96793.06;5029830;28;20465;-49
2021/04/08 00:22:30;;;;;;;10.00;5.22;;;;;;;1.08;100.00;96790.16;5019221;28;20267;-49
2021/04/08 00:24:58;;;;;;;5.78;4.95;;;;;;;1.19;100.00;96785.25;5030024;28;20481;-53
2021/04/08 00:27:26;;;;;;;5.70;5.20;;;;;;;1.18;100.00;96783.59;5020279;28;20065;-48
2021/04/08 00:29:53;;;;;;;5.18;4.72;;;;;;;1.10;100.00;96771.00;5031776;28;20084;-52
2021/04/08 00:32:21;;;;;;;4.90;4.40;;;;;;;1.04;100.00;96781.69;5012213;28;20077;-49
2021/04/08 00:34:49;;;;;;;6.13;5.07;;;;;;;1.24;100.00;96777.22;5041922;28;20467;-51
2021/04/08 00:37:16;;;;;;;5.35;4.50;;;;;;;1.09;100.00;96768.47;5008960;28;20073;-47
2021/04/08 00:39:43;;;;;;;5.20;4.63;;;;;;;1.12;100.00;96781.31;5037135;28;20591;-53
2021/04/08 00:42:11;;;;;;;7.32;5.57;;;;;;;1.15;100.00;96770.75;5012028;28;20056;-47
2021/04/08 00:44:38;;;;;;;4.93;4.43;;;;;;;0.97;100.00;96750.94;5031057;28;20083;-47
2021/04/08 00:47:06;;;;;;;4.97;4.47;;;;;;;1.00;100.00;96762.00;5018885;28;20076;-47
2021/04/08 00:49:33;;;;;;;5.50;5.00;;;;;;;0.97;100.00;96767.34;5025878;28;20084;-46
2021/04/08 00:52:01;;;;;;;4.85;4.45;;;;;;;1.06;100.00;96769.47;5016171;28;20080;-49
2021/04/08 00:54:29;;;;;;;7.25;5.72;;;;;;;1.09;100.00;96765.88;5024548;28;20080;-49
2021/04/08 00:56:59;;;;;;;5.47;4.00;;;;;;;1.09;100.00;96761.50;5031506;28;20092;-53
2021/04/08 00:59:27;;;;;;;5.35;4.57;;;;;;;1.05;100.00;96774.75;5027599;28;20081;-50
2021/04/08 01:01:55;;;;;;;5.25;4.75;;;;;;;1.09;100.00;96758.91;5030435;28;20080;-46
2021/04/08 01:04:22;;;;;;;4.65;4.18;;;;;;;1.03;100.00;96777.41;5002760;28;20068;-47
2021/04/08 01:06:51;;;;;;;5.95;5.00;;;;;;;1.12;100.00;96766.56;5037239;28;20061;-50
2021/04/08 01:09:19;;;;;;;4.70;4.30;;;;;;;1.10;100.00;96768.41;5016190;28;20069;-49
2021/04/08 01:11:46;;;;;;;5.55;5.05;;;;;;;1.21;100.00;96767.00;5031075;28;20107;-47
2021/04/08 01:14:14;;;;;;;9.45;4.47;;;;;;;1.17;100.00;96777.56;5014284;28;20076;-52
2021/04/08 01:16:47;;;;;;;4.78;4.30;;;;;;;1.08;100.00;96770.22;5012489;28;20056;-49
2021/04/08 01:19:52;;;;;;;7.25;4.70;;;;;;;1.06;100.00;96772.06;5013592;28;20526;-50
2021/04/08 01:22:34;;;;;;;4.57;4.18;;;;;;;1.02;100.00;96775.72;5033958;28;20590;-48
2021/04/08 01:25:22;;;;;;;4.70;4.10;;;;;;;1.05;100.00;96767.78;5016621;28;20071;-47
2021/04/08 01:28:06;;;;;;;6.18;4.50;;;;;;;1.06;100.00;96776.41;5022887;28;20066;-49
2021/04/08 01:30:42;;;;;;;7.97;5.13;;;;;;;1.07;100.00;96778.13;5007459;28;20075;-49
2021/04/08 01:33:14;;;;;;;5.38;4.43;;;;;;;1.00;100.00;96785.38;5036305;28;20056;-49
2021/04/08 01:35:42;;;;;;;5.18;4.72;;;;;;;1.13;100.00;96790.75;5008699;28;20065;-47
2021/04/08 01:38:14;;;;;;;6.30;4.70;;;;;;;1.13;100.00;96788.16;5019689;28;20077;-53
2021/04/08 01:40:42;;;;;;;5.50;5.00;;;;;;;1.12;100.00;96795.13;5004513;28;20079;-48
2021/04/08 01:43:10;;;;;;;5.50;4.90;;;;;;;1.17;100.00;96789.69;5012128;28;20075;-50
2021/04/08 01:45:38;;;;;;;5.50;5.00;;;;;;;1.25;100.00;96797.94;5011533;28;20076;-52
2021/04/08 01:48:07;;;;;;;5.85;4.72;;;;;;;1.15;100.00;96797.56;5032071;28;20538;-50
2021/04/08 01:50:35;;;;;;;4.93;4.43;;;;;;;1.31;100.00;96805.41;5015170;28;20053;-48
2021/04/08 01:53:05;;;;;;;5.72;5.22;;;;;;;1.32;100.00;96806.25;5036193;28;20075;-52
2021/04/08 01:55:34;;;;;;;6.68;5.10;;;;;;;1.28;100.00;96800.38;4988086;28;20073;-54
2021/04/08 01:58:02;;;;;;;4.80;4.30;;;;;;;1.25;100.00;96808.31;5032349;28;20061;-53
2021/04/08 02:00:30;;;;;;;5.70;4.63;;;;;;;1.31;100.00;96805.41;4994688;28;20456;-55
2021/04/08 02:02:58;;;;;;;4.57;4.20;;;;;;;1.37;100.00;96822.44;5026301;28;20065;-52
2021/04/08 02:05:26;;;;;;;5.88;5.07;;;;;;;1.00;100.00;96819.13;4996154;28;20523;-51
2021/04/08 02:07:56;;;;;;;5.25;4.55;;;;;;;0.90;100.00;96818.75;5010384;28;20072;-53
2021/04/08 02:10:24;;;;;;;6.97;5.30;;;;;;;0.88;100.00;96825.75;4987499;28;20068;-54
2021/04/08 02:12:52;;;;;;;5.65;5.15;;;;;;;1.02;100.00;96819.03;5009639;28;20507;-50
2021/04/08 02:15:21;;;;;;;5.32;4.78;;;;;;;1.10;100.00;96822.94;5010901;28;20073;-52
2021/04/08 02:17:55;;;;;;;7.55;5.65;;;;;;;1.28;100.00;96825.53;5024287;28;20554;-52
2021/04/08 02:20:24;;;;;;;6.03;4.95;;;;;;;1.15;100.00;96823.53;5011768;28;20073;-48
2021/04/08 02:22:54;;;;;;;5.78;4.68;;;;;;;1.13;100.00;96840.94;5029251;28;20075;-48
2021/04/08 02:25:23;;;;;;;5.93;5.00;;;;;;;0.86;100.00;96832.81;5026059;28;20061;-50
2021/04/08 02:27:52;;;;;;;5.43;4.93;;;;;;;0.90;100.00;96847.31;5018143;28;20060;-48
2021/04/08 02:30:23;;;;;;;6.13;5.28;;;;;;;0.89;100.00;96839.56;5024977;28;20064;-50
2021/04/08 02:32:51;;;;;;;8.43;5.38;;;;;;;0.83;100.00;96852.88;5005795;28;20079;-47
2021/04/08 02:35:19;;;;;;;7.63;5.97;;;;;;;0.56;100.00;96848.09;5020539;28;20077;-50
2021/04/08 02:37:48;;;;;;;7.10;5.70;;;;;;;0.62;100.00;96854.75;5006113;28;20072;-49
2021/04/08 02:40:18;;;;;;;6.32;5.82;;;;;;;0.53;100.00;96860.38;5029167;28;20061;-49
2021/04/08 02:42:46;;;;;;;6.75;5.20;;;;;;;0.47;100.00;96858.91;5003899;28;20065;-53
2021/04/08 02:45:14;;;;;;;5.93;5.30;;;;;;;0.44;100.00;96857.31;5027848;28;20068;-50
2021/04/08 02:47:41;;;;;;;5.63;5.13;;;;;;;0.29;100.00;96837.28;5011461;28;20471;-49
2021/04/08 02:50:10;;;;;;;7.75;6.05;;;;;;;0.44;100.00;96864.25;5023951;28;21412;-50
2021/04/08 02:52:47;;;;;;;6.50;5.32;;;;;;;0.42;100.00;96855.72;5011970;28;20068;-49
2021/04/08 02:55:19;;;;;;;5.70;5.20;;;;;;;0.47;100.00;96856.31;5033787;28;20087;-47
2021/04/08 02:57:52;;;;;;;6.00;5.20;;;;;;;0.43;100.00;96858.22;5009760;28;20077;-52
2021/04/08 03:00:21;;;;;;;5.80;5.15;;;;;;;0.41;100.00;96865.25;5036877;28;20100;-49
2021/04/08 03:02:50;;;;;;;5.45;4.95;;;;;;;0.43;100.00;96866.00;5006282;28;20077;-49
2021/04/08 03:05:20;;;;;;;8.50;5.90;;;;;;;0.46;100.00;96875.41;5024976;28;20081;-51
2021/04/08 03:07:49;;;;;;;8.23;6.40;;;;;;;0.46;100.00;96872.81;5011521;28;20069;-49
2021/04/08 03:10:17;;;;;;;6.30;5.57;;;;;;;0.49;100.00;96871.84;5017125;28;20073;-48
2021/04/08 03:12:48;;;;;;;6.70;6.00;;;;;;;0.56;100.00;96881.00;5013037;28;20073;-47
2021/04/08 03:15:19;;;;;;;6.60;5.47;;;;;;;0.62;100.00;96881.56;5027547;28;20060;-48
2021/04/08 03:17:49;;;;;;;7.10;6.40;;;;;;;0.67;100.00;96881.31;5007663;28;20692;-47
2021/04/08 03:20:17;;;;;;;7.38;5.78;;;;;;;0.58;100.00;96874.81;5031382;28;20881;-49
2021/04/08 03:22:45;;;;;;;7.47;5.95;;;;;;;0.61;100.00;96887.63;5013101;28;20083;-47
2021/04/08 03:25:13;;;;;;;6.65;5.68;;;;;;;0.67;100.00;96887.34;5014606;28;20134;-49
2021/04/08 03:28:07;;;;;;;6.50;5.50;;;;;;;0.68;100.00;96890.78;5015284;28;20049;-52
2021/04/08 03:30:40;;;;;;;7.53;6.15;;;;;;;0.77;100.00;96892.94;5024011;28;20060;-47
2021/04/08 03:33:08;;;;;;;8.05;5.82;;;;;;;0.64;100.00;96890.09;5008509;28;20061;-51
2021/04/08 03:35:36;;;;;;;6.60;5.47;;;;;;;0.62;100.00;96889.34;5040739;28;20472;-48
2021/04/08 03:38:04;;;;;;;6.65;5.97;;;;;;;0.61;100.00;96894.59;5019895;28;20065;-49
2021/04/08 03:40:32;;;;;;;7.05;6.10;;;;;;;0.77;100.00;96905.09;4996795;28;20104;-52
2021/04/08 03:43:00;;;;;;;6.68;6.07;;;;;;;0.63;100.00;96906.59;5019379;28;20076;-45
2021/04/08 03:45:28;;;;;;;6.10;5.50;;;;;;;0.61;100.00;96897.19;5001969;28;20065;-53
2021/04/08 03:47:59;;;;;;;6.05;5.45;;;;;;;0.61;100.00;96895.44;5015174;28;20072;-50
2021/04/08 03:50:28;;;;;;;10.65;5.85;;;;;;;0.63;100.00;96897.97;5011743;28;20069;-51
2021/04/08 03:52:56;;;;;;;7.00;6.00;;;;;;;0.62;100.00;96898.84;5035930;28;20112;-46
2021/04/08 03:55:25;;;;;;;6.75;5.80;;;;;;;0.68;100.00;96901.16;5012622;28;20077;-48
2021/04/08 03:57:53;;;;;;;5.68;5.20;;;;;;;0.61;100.00;96899.78;5009002;28;20080;-47
2021/04/08 04:00:21;;;;;;;7.10;6.38;;;;;;;0.62;100.00;96897.13;5005072;28;20076;-47
2021/04/08 04:02:50;;;;;;;6.68;6.10;;;;;;;0.49;100.00;96897.78;5022423;28;20487;-47
2021/04/08 04:05:18;;;;;;;8.55;6.82;;;;;;;0.65;100.00;96890.94;4992781;28;20088;-47
2021/04/08 04:07:50;;;;;;;10.32;6.93;;;;;;;0.71;100.00;96903.63;5040449;28;20469;-47
2021/04/08 04:10:21;;;;;;;7.38;6.60;;;;;;;0.61;100.00;96879.00;5004759;28;20071;-50
2021/04/08 04:12:50;;;;;;;8.30;6.05;;;;;;;0.76;100.00;96903.38;5030278;28;20080;-48
2021/04/08 04:15:18;;;;;;;7.97;6.65;;;;;;;0.84;100.00;96904.72;5020260;28;20638;-50
2021/04/08 04:17:46;;;;;;;7.75;6.70;;;;;;;0.85;100.00;96908.16;5019836;28;20065;-50
2021/04/08 04:20:15;;;;;;;8.57;7.07;;;;;;;0.86;100.00;96902.91;5016501;28;20084;-49
2021/04/08 04:22:44;;;;;;;6.88;6.18;;;;;;;0.79;100.00;96913.63;5039413;28;20506;-48
2021/04/08 04:25:13;;;;;;;8.88;6.53;;;;;;;0.87;100.00;96914.13;5009374;28;20517;-48
2021/04/08 04:27:41;;;;;;;7.93;6.63;;;;;;;0.93;100.00;96916.44;5029969;28;20081;-47
2021/04/08 04:30:09;;;;;;;7.38;6.53;;;;;;;1.05;100.00;96910.63;5034355;28;20395;-47
2021/04/08 04:32:37;;;;;;;10.13;7.13;;;;;;;1.09;100.00;96912.13;5013022;28;20065;-50
2021/04/08 04:35:05;;;;;;;9.00;7.25;;;;;;;0.95;100.00;96923.19;5040635;28;20436;-48
2021/04/08 04:37:34;;;;;;;9.18;7.53;;;;;;;1.07;100.00;96919.19;5019723;28;20076;-51
2021/04/08 04:40:01;;;;;;;9.05;6.80;;;;;;;1.07;100.00;96933.94;5031330;28;20057;-48
2021/04/08 04:42:29;;;;;;;9.02;7.15;;;;;;;1.09;100.00;96927.72;5019476;28;20518;-52
2021/04/08 04:44:56;;;;;;;9.52;7.60;;;;;;;1.12;100.00;96934.53;5026561;28;20075;-49
2021/04/08 04:47:23;;;;;;;7.82;7.00;;;;;;;0.88;100.00;96939.16;5015251;28;20172;-49
2021/04/08 04:49:51;;;;;;;13.32;7.85;;;;;;;1.11;100.00;96938.91;5036570;28;20461;-47
2021/04/08 04:52:18;;;;;;;7.75;6.95;;;;;;;1.12;100.00;96942.31;5017074;28;20079;-51
2021/04/08 04:54:47;;;;;;;8.48;7.15;;;;;;;1.05;100.00;96949.56;5031660;28;20061;-47
2021/04/08 04:57:14;;;;;;;7.97;6.75;;;;;;;1.11;100.00;96951.03;4998214;28;20556;-48
2021/04/08 04:59:42;;;;;;;9.98;7.18;;;;;;;1.30;100.00;96953.56;5029770;28;20075;-52
2021/04/08 05:02:10;;;;;;;10.23;7.30;;;;;;;1.22;100.00;96968.69;5019115;28;20415;-47
2021/04/08 05:04:38;;;;;;;10.63;7.93;;;;;;;1.47;100.00;96970.91;5022874;28;20067;-52
2021/04/08 05:07:06;;;;;;;9.77;7.70;;;;;;;1.38;100.00;96965.28;5007761;28;20061;-47
2021/04/08 05:09:33;;;;;;;13.38;7.70;;;;;;;1.23;100.00;96980.75;5030512;28;20464;-47
2021/04/08 05:12:02;;;;;;;10.20;7.88;;;;;;;1.15;100.00;96981.97;4995689;28;20079;-49
2021/04/08 05:14:29;;;;;;;10.82;6.50;;;;;;;1.12;100.00;96984.72;5015782;28;20073;-49
2021/04/08 05:16:57;;;;;;;9.88;8.02;;;;;;;1.05;100.00;96988.53;5039461;28;20077;-48
2021/04/08 05:19:25;;;;;;;14.98;8.13;;;;;;;1.13;100.00;97003.75;5008595;28;20072;-48
2021/04/08 05:21:52;;;;;;;8.23;6.95;;;;;;;1.05;100.00;96992.88;5016566;28;20065;-49
2021/04/08 05:24:20;;;;;;;9.55;7.70;;;;;;;1.04;100.00;97005.03;5017944;28;20068;-48
2021/04/08 05:26:47;;;;;;;10.65;8.38;;;;;;;1.14;100.00;96993.28;5012533;28;20080;-50
2021/04/08 05:29:15;;;;;;;19.52;7.10;;;;;;;0.98;100.00;97007.06;5012256;28;20096;-47
2021/04/08 05:31:43;;;;;;;10.57;7.28;;;;;;;1.00;100.00;97006.09;5035466;28;20065;-49
2021/04/08 05:34:10;;;;;;;11.95;8.13;;;;;;;1.10;100.00;97015.13;5007172;28;20065;-50
2021/04/08 05:36:38;;;;;;;9.13;8.23;;;;;;;1.22;100.00;97012.84;5036797;28;20080;-50
2021/04/08 05:39:05;;;;;;;9.18;8.27;;;;;;;1.09;100.00;97020.38;5015228;28;20075;-48
2021/04/08 05:41:33;;;;;;;11.40;8.43;;;;;;;1.08;100.00;97022.16;5027790;28;20130;-51
2021/04/08 05:44:02;;;;;;;10.60;7.95;;;;;;;1.08;100.00;97013.50;5009894;28;20515;-48
2021/04/08 05:46:31;;;;;;;9.90;8.87;;;;;;;1.23;100.00;97023.16;5033763;28;20073;-46
2021/04/08 05:48:58;;;;;;;10.23;8.00;;;;;;;1.13;100.00;97017.56;5011540;28;20069;-47
2021/04/08 05:51:27;;;;;;;9.60;8.55;;;;;;;1.22;100.00;97025.84;5043986;28;20056;-49
2021/04/08 05:53:54;;;;;;;11.43;8.73;;;;;;;1.38;100.00;97032.00;4990980;28;20095;-50
2021/04/08 05:56:22;;;;;;;9.73;8.32;;;;;;;1.16;100.00;97033.00;5033501;28;20073;-49
2021/04/08 05:58:49;;;;;;;10.25;9.02;;;;;;;1.35;100.00;97030.38;5000187;28;20536;-50
2021/04/08 06:01:17;;;;;;;12.88;10.18;;;;;;;1.49;100.00;97034.91;5024831;28;20073;-47
2021/04/08 06:03:45;;;;;;;9.98;8.80;;;;;;;1.49;100.00;97039.28;5038463;28;20091;-50
2021/04/08 06:06:13;;;;;;;11.13;9.07;;;;;;;1.57;100.00;97039.72;5011183;28;20069;-48
2021/04/08 06:08:41;;;;;;;9.52;8.43;;;;;;;1.48;100.00;97045.38;5024701;28;20061;-45
2021/04/08 06:11:08;;;;;;;7.28;6.57;;;;;;;1.26;100.00;97048.16;5019466;28;20489;-49
2021/04/08 06:13:36;;;;;;;9.23;8.27;;;;;;;1.34;100.00;97048.63;5038128;28;20098;-49
2021/04/08 06:16:04;;;;;;;8.43;6.47;;;;;;;1.04;100.00;97056.97;5007545;28;20065;-49
2021/04/08 06:18:31;;;;;;;7.95;6.47;;;;;;;1.13;100.00;97059.13;5038633;28;20073;-50
2021/04/08 06:21:00;;;;;;;9.60;7.60;;;;;;;1.22;100.00;97073.44;5014763;28;20068;-48
2021/04/08 06:23:27;;;;;;;6.55;5.88;;;;;;;0.91;100.00;97061.88;5016471;28;20076;-50
2021/04/08 06:25:57;;;;;;;7.97;7.18;;;;;;;0.90;100.00;97067.16;5010439;28;20076;-47
2021/04/08 06:28:25;;;;;;;8.65;6.53;;;;;;;0.81;100.00;97078.78;5026834;28;20057;-52
2021/04/08 06:30:55;;;;;;;11.20;7.22;;;;;;;0.83;100.00;97074.38;5014909;28;20073;-51
2021/04/08 06:33:22;;;;;;;8.18;7.10;;;;;;;0.90;100.00;97074.94;5037774;28;20068;-47
2021/04/08 06:35:50;;;;;;;8.43;7.00;;;;;;;1.30;100.00;97067.88;5007357;28;20137;-50
2021/04/08 06:38:18;;;;;;;9.27;7.03;;;;;;;1.42;100.00;97075.94;5038092;28;20080;-50
2021/04/08 06:40:45;;;;;;;8.75;5.65;;;;;;;1.35;100.00;97073.72;4997447;28;20080;-55
2021/04/08 06:43:13;;;;;;;6.07;5.47;;;;;;;1.19;100.00;97074.41;5023835;28;20096;-52
2021/04/08 06:45:46;;;;;;;6.65;5.75;;;;;;;1.37;100.00;97072.69;5010591;28;20084;-52
2021/04/08 06:48:17;;;;;;;9.88;6.88;;;;;;;1.29;100.00;97074.84;5034732;28;20075;-48
2021/04/08 06:50:44;;;;;;;8.50;7.25;;;;;;;1.55;100.00;97073.59;5020884;28;20805;-47
2021/04/08 06:53:13;;;;;;;5.78;4.45;;;;;;;1.67;100.00;97070.38;5039624;28;20089;-52
2021/04/08 06:55:42;;;;;;;6.70;4.80;;;;;;;1.63;100.00;97073.22;5025010;28;20194;-49
2021/04/08 06:58:10;;;;;;;8.77;5.85;;;;;;;1.63;100.00;97079.25;5004023;28;20057;-51
2021/04/08 07:00:41;;;;;;;9.73;6.82;;;;;;;1.70;100.00;97078.97;5037305;28;20073;-48
2021/04/08 07:03:33;;;;;;;5.50;5.00;;;;;;;1.45;100.00;97071.53;5017113;28;20087;-47
2021/04/08 07:06:00;;;;;;;8.73;5.72;;;;;;;1.46;100.00;97086.19;5027828;28;20088;-47
2021/04/08 07:08:29;;;;;;;6.03;4.88;;;;;;;1.30;100.00;97086.06;5015836;28;20077;-50
2021/04/08 07:10:58;;;;;;;9.30;6.85;;;;;;;1.50;100.00;97095.53;5023993;28;20068;-47
2021/04/08 07:13:26;;;;;;;7.07;5.68;;;;;;;1.74;100.00;97089.13;5008856;28;20066;-49
2021/04/08 07:15:55;;;;;;;6.18;5.57;;;;;;;1.64;100.00;97096.53;5032148;28;20509;-49
2021/04/08 07:18:25;;;;;;;6.50;5.90;;;;;;;1.23;100.00;97100.25;5006489;28;20068;-49
2021/04/08 07:20:53;;;;;;;8.43;7.40;;;;;;;1.19;100.00;97089.16;5023861;28;20100;-49
2021/04/08 07:23:21;;;;;;;7.68;5.80;;;;;;;1.28;100.00;97101.75;5019522;28;20490;-47
2021/04/08 07:26:04;;;;;;;9.13;6.75;;;;;;;1.24;100.00;97101.94;5029157;28;20459;-47
2021/04/08 07:28:34;;;;;;;9.57;6.55;;;;;;;1.24;100.00;97108.00;5011928;28;20080;-48
2021/04/08 07:31:26;;;;;;;8.05;5.43;;;;;;;0.94;100.00;97111.09;5026763;28;20073;-47
2021/04/08 07:33:55;;;;;;;6.80;5.78;;;;;;;1.20;100.00;97096.03;4997887;28;20064;-46
2021/04/08 07:36:28;;;;;;;6.18;4.68;;;;;;;1.35;100.00;97097.94;5040778;28;20041;-47
2021/04/08 07:39:01;;;;;;;6.85;5.78;;;;;;;1.48;100.00;97100.81;5012184;28;20103;-50
2021/04/08 07:41:30;;;;;;;14.10;5.38;;;;;;;1.63;100.00;97104.41;5030766;28;20524;-52
2021/04/08 07:43:59;;;;;;;7.07;5.65;;;;;;;1.80;100.00;97107.03;5005004;28;20068;-49
2021/04/08 07:46:31;;;;;;;7.53;5.97;;;;;;;1.98;100.00;97114.84;5025673;28;20057;-48
2021/04/08 07:48:58;;;;;;;6.88;4.28;;;;;;;1.74;100.00;97111.69;5013621;28;20072;-52
2021/04/08 07:51:30;;;;;;;5.65;5.13;;;;;;;1.78;100.00;97126.22;5034773;28;20427;-50
2021/04/08 07:54:15;;;;;;;7.57;5.75;;;;;;;1.66;100.00;97130.28;5000734;28;20078;-51
2021/04/08 07:56:43;;;;;;;8.77;5.50;;;;;;;1.93;100.00;97138.50;5025175;28;20078;-50
2021/04/08 07:59:23;;;;;;;5.75;4.53;;;;;;;1.74;100.00;97127.28;4999483;28;20473;-56
2021/04/08 08:01:58;;;;;;;7.47;5.00;;;;;;;1.85;100.00;97130.22;5021296;28;20527;-53
2021/04/08 08:04:27;;;;;;;6.22;5.57;;;;;;;1.77;100.00;97122.78;5013268;28;20065;-49
2021/04/08 08:06:56;;;;;;;8.15;6.35;;;;;;;1.72;100.00;97132.59;5039254;28;20124;-48
2021/04/08 08:09:24;;;;;;;6.00;5.38;;;;;;;1.89;100.00;97126.53;5001764;28;20077;-50
2021/04/08 08:11:54;;;;;;;9.05;6.03;;;;;;;1.90;100.00;97136.03;5035903;28;20088;-49
2021/04/08 08:14:32;;;;;;;7.63;5.45;;;;;;;1.99;100.00;97137.34;5013508;28;20092;-48
2021/04/08 08:17:05;;;;;;;7.25;6.50;;;;;;;2.20;100.00;97140.63;5024508;28;20072;-50
2021/04/08 08:19:33;;;;;;;7.03;6.03;;;;;;;2.46;100.00;97141.94;5013036;28;20096;-49
2021/04/08 08:22:02;;;;;;;9.27;6.43;;;;;;;2.67;100.00;97145.22;5029891;28;20089;-48
2021/04/08 08:24:30;;;;;;;8.73;6.18;;;;;;;2.64;100.00;97156.63;5010715;28;20539;-50
2021/04/08 08:26:59;;;;;;;10.27;6.60;;;;;;;2.53;100.00;97154.56;5031446;28;20103;-48
2021/04/08 08:29:27;;;;;;;8.20;6.88;;;;;;;3.11;100.00;97147.25;5027746;28;20081;-51
2021/04/08 08:31:57;;;;;;;8.15;7.25;;;;;;;3.59;100.00;97158.56;5006180;28;20061;-52
2021/04/08 08:34:27;;;;;;;8.63;6.57;;;;;;;3.71;100.00;97161.31;5028499;28;20080;-52
2021/04/08 08:36:55;;;;;;;9.10;6.75;;;;;;;3.99;100.00;97151.94;5002276;28;20073;-47
2021/04/08 08:39:25;;;;;;;7.10;5.80;;;;;;;2.95;100.00;97155.03;5032592;28;20092;-51
2021/04/08 08:41:53;;;;;;;8.00;5.40;;;;;;;3.22;100.00;97143.13;5013859;28;20555;-53
2021/04/08 08:44:24;;;;;;;7.90;6.35;;;;;;;3.36;100.00;97149.38;5026003;28;20083;-52
2021/04/08 08:46:56;;;;;;;7.80;6.43;;;;;;;3.32;100.00;97154.75;5011993;28;20524;-48
2021/04/08 08:49:26;;;;;;;7.97;6.70;;;;;;;4.17;100.00;97156.13;5037114;28;20075;-52
2021/04/08 08:51:57;;;;;;;8.95;4.97;;;;;;;3.90;100.00;97155.09;5011589;28;20088;-52
2021/04/08 08:54:25;;;;;;;7.05;6.28;;;;;;;4.42;100.00;97160.75;5029867;28;20069;-56
2021/04/08 08:56:54;;;;;;;6.95;6.10;;;;;;;4.80;100.00;97162.88;5018040;28;20080;-55
2021/04/08 08:59:21;;;;;;;8.73;6.28;;;;;;;4.31;100.00;97165.78;5030333;28;20089;-51
2021/04/08 09:01:49;;;;;;;8.80;6.20;;;;;;;4.58;100.00;97157.25;5014764;28;20066;-49
2021/04/08 09:04:17;;;;;;;7.65;5.85;;;;;;;4.66;100.00;97157.63;5035872;28;20072;-54
2021/04/08 09:06:57;;;;;;;9.52;6.40;;;;;;;4.63;100.00;97152.59;5011926;28;20061;-54
2021/04/08 09:09:27;;;;;;;8.13;6.28;;;;;;;4.26;100.00;97142.53;5037432;28;20076;-56
2021/04/08 09:11:57;;;;;;;8.30;5.68;;;;;;;4.45;100.00;97146.69;5007719;28;20081;-57
2021/04/08 09:14:25;;;;;;;7.38;6.50;;;;;;;4.24;100.00;97149.63;5032734;28;20088;-55
2021/04/08 09:16:54;;;;;;;7.25;6.43;;;;;;;4.10;100.00;97146.13;5015879;28;20077;-53
2021/04/08 09:19:27;;;;;;;7.40;5.80;;;;;;;3.69;100.00;97159.72;5025946;28;20520;-54
2021/04/08 09:21:58;;;;;;;9.98;7.50;;;;;;;4.34;100.00;97149.09;5018236;28;22958;-53
2021/04/08 09:24:37;;;;;;;9.10;7.28;;;;;;;4.13;100.00;97153.75;5037861;28;20065;-55
2021/04/08 09:27:06;;;;;;;7.75;5.88;;;;;;;4.25;100.00;97156.50;5008073;28;20088;-55
2021/04/08 09:29:55;;;;;;;8.25;6.35;;;;;;;4.41;100.00;97153.03;5037997;28;20100;-49
2021/04/08 09:32:25;;;;;;;6.72;5.90;;;;;;;4.41;100.00;97153.03;5010509;28;21306;-50
2021/04/08 09:35:11;;;;;;;8.80;6.63;;;;;;;4.35;100.00;97145.53;5028019;28;20076;-54
2021/04/08 09:38:15;;;;;;;6.25;5.35;;;;;;;4.52;100.00;97148.84;5015083;28;20076;-55
2021/04/08 09:41:04;;;;;;;8.52;6.57;;;;;;;4.72;100.00;97150.28;5027906;28;20573;-54
2021/04/08 09:43:32;;;;;;;6.03;5.43;;;;;;;4.75;100.00;97138.81;5008908;28;20076;-53
2021/04/08 09:46:13;;;;;;;6.25;5.20;;;;;;;4.45;100.00;97141.47;5028373;28;20073;-56
2021/04/08 09:48:58;;;;;;;;;;;;;;;4.28;100.00;97143.28;5003699;28;20088;-56
2021/04/08 09:51:35;;;;;;;9.25;5.65;;;;;;;5.16;97.44;97144.16;5033451;28;19983;-50
2021/04/08 09:54:05;;;;;;;8.63;5.50;;;;;;;5.15;96.10;97149.44;5003595;28;20073;-49
2021/04/08 09:56:47;;;;;;;8.50;6.45;;;;;;;5.41;100.00;97142.63;5039604;28;20088;-57
2021/04/08 09:59:17;;;;;;;5.75;5.15;;;;;;;4.66;94.80;97137.59;5017039;28;21517;-54
2021/04/08 10:01:45;;;;;;;11.20;5.40;;;;;;;4.72;94.58;97139.00;5026868;28;20070;-53
2021/04/08 10:04:18;;;;;;;5.57;4.88;;;;;;;4.89;93.66;97140.59;5014138;28;20429;-53
2021/04/08 10:06:47;;;;;;;8.30;6.38;;;;;;;5.10;86.98;97144.50;5031989;28;20079;-50
2021/04/08 10:09:16;;;;;;;7.50;5.53;;;;;;;5.09;99.41;97141.97;5005763;28;20064;-51
2021/04/08 10:11:43;;;;;;;6.55;5.68;;;;;;;5.29;96.56;97151.22;5030317;28;20510;-52
2021/04/08 10:14:22;;;;;;;7.47;5.47;;;;;;;5.15;91.46;97141.59;5009751;28;20087;-49
2021/04/08 10:17:00;;;;;;;8.65;6.82;;;;;;;5.38;100.00;97153.28;5024709;28;20068;-54
2021/04/08 10:19:30;;;;;;;6.93;5.88;;;;;;;4.86;92.69;97151.22;5018159;28;20454;-51
2021/04/08 10:21:58;;;;;;;7.00;6.25;;;;;;;5.62;100.00;97146.50;5030237;28;20080;-52
2021/04/08 10:24:25;;;;;;;7.78;5.85;;;;;;;5.17;100.00;97148.44;5010869;28;20075;-52
2021/04/08 10:26:54;;;;;;;7.55;6.32;;;;;;;5.31;88.48;97149.34;5036961;28;20455;-48
2021/04/08 10:29:32;;;;;;;6.80;5.53;;;;;;;5.24;90.24;97141.06;5001435;28;20089;-52
2021/04/08 10:32:00;;;;;;;7.45;6.18;;;;;;;5.72;100.00;97144.13;5025128;28;20069;-50
2021/04/08 10:34:34;;;;;;;7.72;6.47;;;;;;;5.46;87.74;97138.75;5029454;28;20577;-47
2021/04/08 10:37:04;;;;;;;7.68;6.15;;;;;;;6.14;100.00;97137.94;5027690;28;20080;-56
2021/04/08 10:39:33;;;;;;;8.32;6.22;;;;;;;5.80;100.00;97141.84;5030876;28;20079;-51
2021/04/08 10:42:02;;;;;;;8.57;6.15;;;;;;;5.33;99.55;97135.22;5033016;28;20476;-51
2021/04/08 10:44:36;;;;;;;7.38;5.70;;;;;;;5.84;92.98;97134.66;5015402;28;20427;-53
2021/04/08 10:47:10;;;;;;;7.40;6.47;;;;;;;5.76;94.79;97134.31;5012586;28;20073;-52
2021/04/08 10:49:44;;;;;;;8.00;5.78;;;;;;;6.12;94.78;97131.09;5037060;28;20522;-53
2021/04/08 10:52:13;;;;;;;9.93;6.15;;;;;;;6.59;100.00;97137.59;5001574;28;20507;-52
2021/04/08 10:54:42;;;;;;;7.28;5.63;;;;;;;6.92;100.00;97125.75;5017869;28;20080;-52
2021/04/08 10:57:10;;;;;;;7.88;5.85;;;;;;;7.25;96.79;97131.28;5013005;28;20065;-51
2021/04/08 10:59:40;;;;;;;8.50;6.20;;;;;;;7.77;100.00;97127.56;5020900;28;20073;-57
2021/04/08 11:02:26;;;;;;;8.90;6.03;;;;;;;6.63;100.00;97128.59;5009843;28;20512;-57
2021/04/08 11:04:55;;;;;;;6.28;4.88;;;;;;;6.16;91.80;97143.09;5031098;28;20068;-55
2021/04/08 11:07:24;;;;;;;7.05;6.03;;;;;;;6.69;100.00;97143.06;5006021;28;20084;-53
2021/04/08 11:09:52;;;;;;;7.53;5.07;;;;;;;6.14;85.51;97140.53;5024282;28;20061;-50
2021/04/08 11:12:22;;;;;;;8.30;5.30;;;;;;;6.65;92.54;97139.81;5016765;28;20060;-53
2021/04/08 11:14:51;;;;;;;7.93;4.88;;;;;;;6.58;82.81;97146.41;5029950;28;20080;-52
2021/04/08 11:17:19;;;;;;;6.15;5.13;;;;;;;6.00;91.04;97147.63;5023741;28;20069;-50
2021/04/08 11:19:47;;;;;;;7.78;5.90;;;;;;;6.39;97.47;97126.66;5026361;28;20468;-50
2021/04/08 11:22:17;;;;;;;7.28;5.50;;;;;;;6.57;100.00;97148.19;5011986;28;20488;-52
2021/04/08 11:24:47;;;;;;;5.97;5.47;;;;;;;6.55;98.49;97144.81;5038156;28;20073;-52
2021/04/08 11:27:24;;;;;;;7.63;5.32;;;;;;;6.50;100.00;97143.44;5006125;28;20060;-51
2021/04/08 11:29:52;;;;;;;6.60;5.85;;;;;;;6.09;91.89;97142.66;5034098;28;20528;-50
2021/04/08 11:32:20;;;;;;;6.57;5.68;;;;;;;5.98;100.00;97146.88;5009659;28;20069;-54
2021/04/08 11:34:50;;;;;;;6.18;5.25;;;;;;;6.53;90.41;97138.84;5025825;28;20073;-51
2021/04/08 11:37:19;;;;;;;7.80;5.57;;;;;;;6.87;93.29;97137.41;5015111;28;20065;-51
2021/04/08 11:39:47;;;;;;;10.00;5.47;;;;;;;6.71;86.62;97130.69;5029313;28;20069;-54
2021/04/08 11:42:18;;;;;;;7.03;5.88;;;;;;;6.74;87.85;97130.47;5011122;28;20455;-56
2021/04/08 11:44:46;;;;;;;6.82;5.70;;;;;;;7.31;96.45;97133.47;5035724;28;20087;-52
2021/04/08 11:47:15;;;;;;;8.07;5.43;;;;;;;6.72;94.73;97127.97;5004571;28;20070;-48